createdAt,value
2019-06-08T00:00:27.724Z,100.00
2019-06-08T00:03:33.068Z,100.00
2019-06-08T00:06:38.349Z,100.00
2019-06-08T00:09:43.748Z,100.00
2019-06-08T00:12:49.038Z,100.00
2019-06-08T00:15:54.570Z,100.00
2019-06-08T00:18:59.747Z,100.00
2019-06-08T00:22:04.992Z,100.00
2019-06-08T00:25:10.322Z,100.00
2019-06-08T00:28:16.704Z,100.00
2019-06-08T00:31:21.916Z,100.00
2019-06-08T00:34:27.193Z,100.00
2019-06-08T00:37:32.630Z,100.00
2019-06-08T00:40:37.955Z,100.00
2019-06-08T00:43:43.222Z,100.00
2019-06-08T00:46:48.461Z,100.00
2019-06-08T00:49:53.694Z,100.00
2019-06-08T00:52:58.910Z,100.00
2019-06-08T00:56:05.306Z,100.00
2019-06-08T00:59:10.611Z,100.00
2019-06-08T01:02:15.990Z,100.00
2019-06-08T01:05:21.905Z,100.00
2019-06-08T01:08:27.492Z,100.00
2019-06-08T01:11:32.836Z,100.00
2019-06-08T01:14:38.138Z,100.00
2019-06-08T01:17:43.424Z,100.00
2019-06-08T01:20:48.664Z,100.00
2019-06-08T01:23:53.934Z,100.00
2019-06-08T01:26:59.326Z,100.00
2019-06-08T01:30:05.314Z,100.00
2019-06-08T01:33:10.628Z,100.00
2019-06-08T01:36:16.013Z,100.00
2019-06-08T01:39:21.361Z,100.00
2019-06-08T01:42:27.686Z,100.00
2019-06-08T01:45:33.467Z,100.00
2019-06-08T01:48:39.355Z,100.00
2019-06-08T01:51:44.558Z,100.00
2019-06-08T01:54:49.851Z,100.00
2019-06-08T01:57:55.199Z,100.00
2019-06-08T02:01:00.836Z,100.00
2019-06-08T02:04:06.235Z,100.00
2019-06-08T02:07:11.393Z,100.00
2019-06-08T02:10:17.967Z,100.00
2019-06-08T02:13:24.816Z,100.00
2019-06-08T02:16:31.320Z,100.00
2019-06-08T02:19:36.654Z,100.00
2019-06-08T02:22:41.959Z,100.00
2019-06-08T02:25:47.283Z,100.00
2019-06-08T02:28:52.616Z,100.00
2019-06-08T02:31:58.854Z,100.00
2019-06-08T02:35:04.319Z,100.00
2019-06-08T02:38:09.873Z,100.00
2019-06-08T02:41:15.170Z,100.00
2019-06-08T02:44:20.349Z,100.00
2019-06-08T02:47:25.703Z,100.00
2019-06-08T02:50:52.921Z,100.00
2019-06-08T02:53:58.734Z,100.00
2019-06-08T02:57:06.010Z,100.00
2019-06-08T03:00:12.605Z,100.00
2019-06-08T03:03:18.094Z,100.00
2019-06-08T03:06:25.015Z,100.00
2019-06-08T03:09:32.181Z,100.00
2019-06-08T03:12:42.222Z,100.00
2019-06-08T03:15:46.621Z,100.00
2019-06-08T03:18:51.862Z,100.00
2019-06-08T03:21:57.250Z,100.00
2019-06-08T03:25:03.724Z,100.00
2019-06-08T03:28:09.061Z,100.00
2019-06-08T03:31:14.423Z,100.00
2019-06-08T03:34:19.986Z,100.00
2019-06-08T03:37:25.221Z,100.00
2019-06-08T03:40:30.527Z,100.00
2019-06-08T03:43:37.443Z,100.00
2019-06-08T03:46:44.067Z,100.00
2019-06-08T03:49:56.639Z,100.00
2019-06-08T03:52:56.754Z,100.00
2019-06-08T03:56:02.061Z,100.00
2019-06-08T03:59:08.424Z,100.00
2019-06-08T04:02:13.637Z,100.00
2019-06-08T04:05:19.154Z,100.00
2019-06-08T04:08:24.340Z,100.00
2019-06-08T04:11:29.663Z,98.11
2019-06-08T04:14:34.959Z,96.92
2019-06-08T04:17:40.057Z,96.43
2019-06-08T04:20:46.546Z,96.21
2019-06-08T04:23:54.133Z,97.21
2019-06-08T04:26:59.557Z,97.48
2019-06-08T04:30:05.520Z,97.55
2019-06-08T04:33:10.779Z,97.04
2019-06-08T04:36:16.041Z,94.01
2019-06-08T04:39:21.423Z,94.53
2019-06-08T04:42:26.828Z,92.17
2019-06-08T04:45:32.210Z,93.03
2019-06-08T04:48:40.141Z,93.62
2019-06-08T04:51:47.155Z,94.06
2019-06-08T04:54:52.800Z,92.05
2019-06-08T04:57:58.111Z,90.47
2019-06-08T05:01:03.334Z,92.82
2019-06-08T05:04:08.538Z,91.95
2019-06-08T05:07:13.793Z,88.90
2019-06-08T05:10:19.277Z,88.56
2019-06-08T05:13:24.595Z,86.68
2019-06-08T05:16:29.909Z,88.09
2019-06-08T05:19:35.445Z,88.37
2019-06-08T05:22:41.522Z,91.05
2019-06-08T05:25:47.232Z,81.99
2019-06-08T05:28:53.577Z,87.27
2019-06-08T05:31:58.869Z,85.71
2019-06-08T05:35:04.287Z,86.20
2019-06-08T05:38:09.570Z,83.65
2019-06-08T05:41:14.866Z,86.61
2019-06-08T05:44:20.132Z,83.32
2019-06-08T05:47:26.310Z,83.63
2019-06-08T05:50:31.543Z,79.59
2019-06-08T05:53:36.841Z,79.26
2019-06-08T05:56:42.159Z,74.91
2019-06-08T05:59:48.155Z,72.42
2019-06-08T06:02:54.639Z,65.71
2019-06-08T06:05:59.962Z,67.71
2019-06-08T06:09:07.802Z,59.26
2019-06-08T06:12:13.162Z,63.65
2019-06-08T06:15:18.681Z,62.94
2019-06-08T06:18:24.013Z,61.20
2019-06-08T06:21:30.372Z,60.07
2019-06-08T06:24:35.712Z,56.82
2019-06-08T06:27:41.343Z,53.74
2019-06-08T06:30:48.336Z,55.17
2019-06-08T06:33:53.667Z,55.93
2019-06-08T06:36:59.030Z,53.39
2019-06-08T06:40:04.695Z,54.00
2019-06-08T06:43:09.992Z,48.69
2019-06-08T06:46:15.291Z,49.97
2019-06-08T06:49:20.520Z,49.58
2019-06-08T06:52:25.827Z,52.27
2019-06-08T06:55:31.087Z,50.08
2019-06-08T06:58:36.452Z,51.44
2019-06-08T07:01:41.694Z,52.70
2019-06-08T07:04:48.198Z,53.46
2019-06-08T07:07:54.534Z,51.79
2019-06-08T07:10:59.949Z,53.10
2019-06-08T07:14:05.548Z,48.85
2019-06-08T07:17:10.916Z,48.60
2019-06-08T07:20:16.201Z,48.06
2019-06-08T07:23:21.715Z,49.73
2019-06-08T07:26:27.095Z,48.38
2019-06-08T07:29:32.383Z,45.53
2019-06-08T07:32:37.689Z,45.80
2019-06-08T07:35:42.967Z,44.33
2019-06-08T07:38:48.673Z,43.72
2019-06-08T07:41:55.972Z,41.14
2019-06-08T07:45:01.471Z,39.96
2019-06-08T07:48:08.139Z,42.38
2019-06-08T07:51:13.448Z,38.31
2019-06-08T07:54:18.854Z,40.41
2019-06-08T07:57:24.352Z,40.77
2019-06-08T08:00:29.893Z,40.78
2019-06-08T08:03:35.227Z,40.55
2019-06-08T08:06:40.602Z,42.21
2019-06-08T08:09:45.972Z,42.32
2019-06-08T08:12:51.272Z,41.16
2019-06-08T08:15:59.366Z,40.29
2019-06-08T08:19:05.409Z,43.11
2019-06-08T08:22:22.258Z,43.23
2019-06-08T08:25:18.274Z,42.85
2019-06-08T08:28:23.719Z,43.99
2019-06-08T08:31:29.027Z,42.43
2019-06-08T08:34:34.213Z,42.33
2019-06-08T08:37:39.414Z,42.31
2019-06-08T08:40:44.559Z,42.11
2019-06-08T08:43:51.288Z,41.92
2019-06-08T08:46:59.378Z,40.79
2019-06-08T08:50:03.884Z,40.43
2019-06-08T08:53:09.280Z,40.11
2019-06-08T08:56:18.145Z,40.11
2019-06-08T08:59:23.236Z,39.56
2019-06-08T09:02:28.788Z,40.58
2019-06-08T09:05:34.020Z,38.53
2019-06-08T09:08:39.255Z,37.81
2019-06-08T09:11:44.849Z,39.94
2019-06-08T09:14:52.770Z,38.60
2019-06-08T09:17:59.827Z,39.64
2019-06-08T09:21:04.765Z,39.43
2019-06-08T09:24:10.094Z,41.65
2019-06-08T09:27:17.909Z,41.51
2019-06-08T09:30:23.007Z,42.34
2019-06-08T09:33:28.783Z,42.34
2019-06-08T09:36:34.209Z,39.30
2019-06-08T09:39:39.397Z,39.30
2019-06-08T09:42:44.748Z,39.23
2019-06-08T09:45:50.000Z,36.72
2019-06-08T09:48:59.483Z,37.52
2019-06-08T09:52:04.915Z,37.35
2019-06-08T09:55:10.271Z,37.70
2019-06-08T09:58:17.890Z,36.20
2019-06-08T10:01:22.305Z,35.26
2019-06-08T10:04:29.075Z,34.82
2019-06-08T10:07:34.580Z,35.96
2019-06-08T10:10:39.845Z,36.55
2019-06-08T10:13:47.622Z,36.29
2019-06-08T10:16:51.982Z,37.43
2019-06-08T10:19:59.258Z,37.74
2019-06-08T10:23:06.614Z,35.42
2019-06-08T10:26:11.578Z,32.99
2019-06-08T10:29:18.459Z,33.91
2019-06-08T10:32:28.040Z,33.67
2019-06-08T10:35:32.501Z,35.32
2019-06-08T10:38:41.022Z,34.12
2019-06-08T10:41:44.851Z,34.54
2019-06-08T10:44:50.188Z,34.48
2019-06-08T10:47:58.168Z,34.52
2019-06-08T10:51:05.238Z,32.20
2019-06-08T10:54:11.376Z,33.63
2019-06-08T10:57:18.266Z,32.91
2019-06-08T11:00:24.687Z,33.04
2019-06-08T11:03:31.212Z,35.78
2019-06-08T11:06:40.136Z,35.04
2019-06-08T11:09:45.281Z,35.94
2019-06-08T11:12:50.591Z,34.13
2019-06-08T11:15:58.064Z,33.18
2019-06-08T11:19:03.916Z,34.52
2019-06-08T11:22:14.219Z,34.82
2019-06-08T11:25:19.726Z,33.59
2019-06-08T11:28:23.689Z,33.95
2019-06-08T11:31:32.051Z,34.27
2019-06-08T11:34:37.723Z,33.95
2019-06-08T11:37:43.104Z,34.21
2019-06-08T11:40:50.024Z,33.90
2019-06-08T11:43:59.644Z,33.99
2019-06-08T11:47:02.516Z,34.16
2019-06-08T11:50:12.583Z,33.62
2019-06-08T11:53:17.867Z,34.79
2019-06-08T11:56:23.485Z,36.68
2019-06-08T11:59:29.705Z,35.90
2019-06-08T12:02:34.911Z,35.96
2019-06-08T12:05:40.104Z,35.52
2019-06-08T12:08:47.254Z,34.27
2019-06-08T12:11:52.254Z,35.48
2019-06-08T12:14:58.290Z,34.19
2019-06-08T12:18:03.567Z,36.24
2019-06-08T12:21:11.296Z,36.17
2019-06-08T12:24:15.861Z,38.26
2019-06-08T12:27:29.878Z,36.97
2019-06-08T12:30:29.659Z,34.65
2019-06-08T12:33:34.980Z,36.40
2019-06-08T12:36:40.114Z,35.52
2019-06-08T12:39:45.266Z,33.91
2019-06-08T12:42:50.548Z,33.85
2019-06-08T12:45:57.891Z,33.02
2019-06-08T12:49:02.601Z,33.45
2019-06-08T12:52:09.692Z,36.25
2019-06-08T12:55:19.973Z,37.06
2019-06-08T12:58:22.097Z,33.63
2019-06-08T13:01:28.180Z,34.19
2019-06-08T13:04:33.557Z,34.39
2019-06-08T13:07:38.815Z,35.31
2019-06-08T13:10:44.628Z,36.12
2019-06-08T13:13:49.806Z,36.74
2019-06-08T13:16:55.006Z,36.19
2019-06-08T13:20:00.181Z,36.39
2019-06-08T13:23:05.320Z,34.90
2019-06-08T13:26:11.505Z,35.56
2019-06-08T13:29:20.317Z,35.51
2019-06-08T13:32:24.390Z,34.02
2019-06-08T13:35:30.634Z,34.71
2019-06-08T13:38:37.939Z,33.88
2019-06-08T13:41:42.833Z,33.13
2019-06-08T13:44:48.145Z,30.94
2019-06-08T13:47:53.367Z,33.14
2019-06-08T13:50:59.193Z,34.02
2019-06-08T13:54:04.638Z,33.29
2019-06-08T13:57:09.855Z,34.78
2019-06-08T14:00:18.286Z,34.44
2019-06-08T14:03:24.464Z,33.81
2019-06-08T14:06:29.747Z,34.66
2019-06-08T14:09:35.002Z,33.59
2019-06-08T14:12:40.191Z,33.77
2019-06-08T14:15:45.374Z,34.24
2019-06-08T14:18:50.569Z,35.32
2019-06-08T14:21:55.866Z,35.74
2019-06-08T14:25:01.018Z,33.94
2019-06-08T14:28:07.395Z,33.18
2019-06-08T14:31:12.566Z,35.01
2019-06-08T14:34:20.079Z,34.31
2019-06-08T14:37:30.594Z,35.02
2019-06-08T14:40:37.597Z,33.80
2019-06-08T14:43:42.912Z,35.35
2019-06-08T14:46:48.159Z,35.12
2019-06-08T14:49:53.313Z,35.06
2019-06-08T14:52:59.010Z,33.09
2019-06-08T14:56:08.256Z,33.66
2019-06-08T14:59:11.473Z,32.13
2019-06-08T15:02:17.768Z,32.76
2019-06-08T15:05:23.704Z,33.66
2019-06-08T15:08:31.096Z,35.67
2019-06-08T15:11:37.973Z,33.89
2019-06-08T15:14:42.662Z,35.70
2019-06-08T15:17:47.927Z,35.02
2019-06-08T15:20:53.100Z,35.20
2019-06-08T15:23:58.334Z,36.05
2019-06-08T15:27:03.518Z,35.77
2019-06-08T15:30:09.881Z,36.19
2019-06-08T15:33:15.102Z,35.35
2019-06-08T15:36:22.089Z,34.99
2019-06-08T15:39:29.044Z,35.83
2019-06-08T15:42:34.454Z,35.78
2019-06-08T15:45:39.652Z,36.33
2019-06-08T15:48:44.976Z,36.57
2019-06-08T15:51:50.198Z,37.76
2019-06-08T15:54:58.197Z,36.78
2019-06-08T15:58:02.271Z,35.91
2019-06-08T16:01:07.521Z,35.81
2019-06-08T16:04:12.718Z,37.91
2019-06-08T16:07:18.003Z,37.25
2019-06-08T16:10:23.970Z,37.34
2019-06-08T16:13:30.560Z,39.37
2019-06-08T16:16:35.763Z,37.91
2019-06-08T16:19:40.981Z,37.60
2019-06-08T16:22:46.251Z,38.54
2019-06-08T16:25:51.534Z,37.86
2019-06-08T16:28:56.780Z,37.89
2019-06-08T16:32:02.076Z,38.27
2019-06-08T16:35:07.721Z,37.12
2019-06-08T16:38:12.987Z,36.72
2019-06-08T16:41:18.530Z,35.49
2019-06-08T16:44:23.792Z,33.88
2019-06-08T16:47:29.153Z,35.74
2019-06-08T16:50:34.400Z,32.98
2019-06-08T16:53:40.078Z,33.28
2019-06-08T16:56:45.335Z,33.57
2019-06-08T16:59:50.625Z,34.59
2019-06-08T17:02:57.120Z,31.62
2019-06-08T17:06:02.514Z,32.73
2019-06-08T17:09:08.178Z,33.15
2019-06-08T17:12:13.493Z,33.55
2019-06-08T17:15:19.223Z,33.39
2019-06-08T17:18:24.642Z,33.08
2019-06-08T17:21:30.368Z,32.31
2019-06-08T17:24:36.740Z,33.03
2019-06-08T17:27:42.176Z,30.49
2019-06-08T17:30:47.380Z,30.76
2019-06-08T17:33:52.782Z,32.65
2019-06-08T17:36:58.072Z,31.99
2019-06-08T17:40:03.388Z,32.90
2019-06-08T17:43:08.761Z,35.41
2019-06-08T17:46:14.139Z,31.99
2019-06-08T17:49:19.521Z,33.44
2019-06-08T17:52:27.240Z,36.03
2019-06-08T17:55:33.128Z,39.45
2019-06-08T17:58:39.576Z,41.57
2019-06-08T18:01:44.873Z,44.38
2019-06-08T18:04:50.209Z,44.94
2019-06-08T18:07:57.721Z,47.72
2019-06-08T18:11:02.483Z,47.68
2019-06-08T18:14:07.704Z,44.13
2019-06-08T18:17:12.927Z,49.82
2019-06-08T18:20:19.419Z,53.11
2019-06-08T18:23:24.705Z,53.62
2019-06-08T18:26:30.011Z,53.08
2019-06-08T18:29:37.161Z,51.59
2019-06-08T18:32:44.192Z,52.27
2019-06-08T18:35:49.698Z,55.01
2019-06-08T18:38:54.902Z,55.83
2019-06-08T18:42:00.182Z,51.99
2019-06-08T18:45:07.361Z,51.93
2019-06-08T18:48:17.596Z,55.16
2019-06-08T18:51:25.146Z,57.73
2019-06-08T18:54:30.299Z,57.61
2019-06-08T18:57:35.588Z,59.87
2019-06-08T19:00:43.230Z,59.86
2019-06-08T19:03:52.032Z,57.06
2019-06-08T19:06:55.666Z,57.47
2019-06-08T19:10:03.911Z,57.28
2019-06-08T19:13:09.191Z,59.00
2019-06-08T19:16:14.461Z,59.31
2019-06-08T19:19:19.731Z,59.45
2019-06-08T19:22:25.125Z,60.63
2019-06-08T19:25:30.403Z,59.23
2019-06-08T19:28:40.521Z,60.69
2019-06-08T19:31:45.155Z,60.56
2019-06-08T19:34:53.693Z,58.49
2019-06-08T19:37:58.293Z,62.81
2019-06-08T19:41:03.401Z,64.37
2019-06-08T19:44:08.666Z,65.01
2019-06-08T19:47:13.892Z,66.24
2019-06-08T19:50:19.185Z,66.61
2019-06-08T19:53:24.411Z,66.26
2019-06-08T19:56:29.952Z,64.98
2019-06-08T19:59:35.415Z,65.15
2019-06-08T20:02:42.675Z,66.01
2019-06-08T20:05:50.591Z,68.29
2019-06-08T20:08:57.521Z,69.30
2019-06-08T20:12:03.098Z,70.62
2019-06-08T20:15:09.478Z,71.91
2019-06-08T20:18:17.068Z,72.08
2019-06-08T20:21:21.713Z,72.54
2019-06-08T20:24:27.858Z,72.24
2019-06-08T20:27:33.436Z,72.97
2019-06-08T20:30:38.752Z,74.45
2019-06-08T20:33:45.484Z,75.60
2019-06-08T20:36:51.265Z,77.04
2019-06-08T20:40:07.215Z,76.95
2019-06-08T20:43:03.513Z,77.31
2019-06-08T20:46:08.782Z,78.36
2019-06-08T20:49:14.252Z,79.23
2019-06-08T20:52:19.586Z,79.72
2019-06-08T20:55:25.075Z,79.34
2019-06-08T20:58:30.403Z,79.75
2019-06-08T21:01:35.785Z,79.97
2019-06-08T21:04:41.216Z,79.98
2019-06-08T21:07:49.487Z,80.62
2019-06-08T21:10:54.606Z,81.21
2019-06-08T21:14:00.720Z,81.42
2019-06-08T21:17:07.681Z,81.13
2019-06-08T21:20:14.228Z,82.30
2019-06-08T21:23:19.504Z,82.33
2019-06-08T21:26:25.142Z,82.09
2019-06-08T21:29:47.118Z,82.47
2019-06-08T21:32:37.580Z,82.50
2019-06-08T21:35:42.908Z,83.15
2019-06-08T21:38:51.691Z,83.06
2019-06-08T21:42:00.990Z,83.00
2019-06-08T21:45:05.528Z,83.19
2019-06-08T21:48:09.250Z,83.08
2019-06-08T21:51:14.624Z,83.44
2019-06-08T21:54:20.082Z,84.53
2019-06-08T21:57:27.610Z,85.33
2019-06-08T22:00:42.979Z,86.03
2019-06-08T22:03:41.665Z,86.46
2019-06-08T22:06:48.034Z,87.06
2019-06-08T22:09:54.130Z,88.38
2019-06-08T22:13:00.986Z,87.88
2019-06-08T22:16:08.048Z,87.93
2019-06-08T22:19:13.878Z,88.80
2019-06-08T22:22:19.100Z,88.64
2019-06-08T22:25:24.585Z,88.18
2019-06-08T22:28:29.915Z,87.71
2019-06-08T22:31:37.573Z,86.14
2019-06-08T22:34:42.507Z,86.25
2019-06-08T22:37:48.098Z,86.54
2019-06-08T22:40:54.656Z,88.09
2019-06-08T22:44:00.934Z,89.06
2019-06-08T22:47:08.097Z,90.08
2019-06-08T22:50:14.824Z,90.58
2019-06-08T22:53:20.079Z,91.15
2019-06-08T22:56:27.592Z,91.35
2019-06-08T22:59:32.625Z,90.91
2019-06-08T23:02:38.552Z,91.02
2019-06-08T23:05:43.910Z,91.29
2019-06-08T23:08:49.291Z,92.10
2019-06-08T23:11:55.716Z,92.55
2019-06-08T23:15:02.294Z,93.40
2019-06-08T23:18:09.476Z,93.50
2019-06-08T23:21:14.982Z,94.00
2019-06-08T23:24:20.440Z,94.19
2019-06-08T23:27:27.152Z,93.71
2019-06-08T23:30:32.611Z,92.97
2019-06-08T23:33:38.739Z,92.47
2019-06-08T23:36:57.598Z,93.19
2019-06-08T23:39:51.088Z,94.21
2019-06-08T23:42:58.499Z,95.15
2019-06-08T23:46:04.019Z,95.55
2019-06-08T23:49:09.343Z,96.06
2019-06-08T23:52:14.654Z,96.17
2019-06-08T23:55:19.998Z,95.70
2019-06-08T23:58:27.706Z,95.03
